Ana Sayfa
METAR-TAF:

METAR-TAF

Havaalanları :

Kastamonu Havalimanı

Kastamonu, Türkiye

Enlem: 41-19-01N, Boylam: 33-47-46E, yükseklik: 1073 m

Güncel hava durumu gözlemi

Rapor saat 09:50 UTC de 10 saat ve 47 dakika önce yapıldı.
Rüzgar kuzeydan 6 kt
Sıcaklık 22°C
Nem 41%
Basınç 1020 hPa
Görüş mesafesi 10 km veya daha fazla
3300 ft yükseklikte parçalı bulutlu

METAR: LTAL 230950Z 35006KT 9999 SCT033 22/08 Q1020

Saat: 23:37 (20:37 UTC)

Tahmin

Rapor saat 13:40 UTC de 6 saat ve 57 dakika önce yapıldı.
Ayın 23'si saat 15 UTC'den ayın 23'si saat 24 UTC'ye kadar geçerli Tahmin
Rüzgar kuzeydan 8 kt
Görüş mesafesi 10 km veya daha fazla
3300 ft yükseklikte parçalı bulutlu
Geçici
ayın 23'si saat 15 UTC'den ayın 23'si saat 18 UTC'ye kadar
2700 ft yükseklikte parçalı çok bulutlu
hafif sağanak yağmurlar

TAF: LTAL 231340Z 2315/2324 01008KT 9999 SCT033 TEMPO 2315/2318 -SHRA BKN027

4.000'den fazla havaalanı için hava durumu gözlemleri ve tahminleri (METAR ve TAF raporları).

Kullanılabilir istasyonlar harita üzerinde sarı ve kırmızı noktalarla gösterilir.

İstasyonun adını görmek için fareyi noktanın üzerinde gezdirin.

Sonrasında hava gözlem ve tahminlerini görmek için tıklayın.

Haritayı değiştirmek için: yaklaştırmak için siyah artı işaretli yeşil düğmeye ve uzaklaştırmak için de eksi işaretli düğmeye hızla tıklayın; bitişik haritalar için yeşil okları kullanın.


METAR-TAF: